sensor_id;sensor_type;location;lat;lon;timestamp;pressure;altitude;pressure_sealevel;temperature;humidity
73106;BME280;61559;50.476;15.588;2022-10-03T00:01:57;97735.95;;;9.50;86.89
73106;BME280;61559;50.476;15.588;2022-10-03T00:04:46;97734.98;;;9.53;86.81
73106;BME280;61559;50.476;15.588;2022-10-03T00:07:44;97735.16;;;9.54;86.76
73106;BME280;61559;50.476;15.588;2022-10-03T00:10:25;97727.55;;;9.54;86.47
73106;BME280;61559;50.476;15.588;2022-10-03T00:13:05;97725.41;;;9.56;86.27
73106;BME280;61559;50.476;15.588;2022-10-03T00:15:42;97735.35;;;9.55;86.30
73106;BME280;61559;50.476;15.588;2022-10-03T00:18:32;97733.15;;;9.53;86.31
73106;BME280;61559;50.476;15.588;2022-10-03T00:21:20;97739.95;;;9.51;86.34
73106;BME280;61559;50.476;15.588;2022-10-03T00:24:00;97733.88;;;9.48;86.19
73106;BME280;61559;50.476;15.588;2022-10-03T00:26:43;97733.45;;;9.45;86.17
73106;BME280;61559;50.476;15.588;2022-10-03T00:29:32;97743.36;;;9.45;86.03
73106;BME280;61559;50.476;15.588;2022-10-03T00:32:08;97745.78;;;9.45;86.16
73106;BME280;61559;50.476;15.588;2022-10-03T00:34:53;97738.38;;;9.41;86.16
73106;BME280;61559;50.476;15.588;2022-10-03T00:37:32;97734.57;;;9.38;86.22
73106;BME280;61559;50.476;15.588;2022-10-03T00:43:26;97739.09;;;9.32;86.30
73106;BME280;61559;50.476;15.588;2022-10-03T00:46:20;97738.84;;;9.30;86.29
73106;BME280;61559;50.476;15.588;2022-10-03T00:52:23;97749.13;;;9.29;86.30
73106;BME280;61559;50.476;15.588;2022-10-03T00:55:08;97744.20;;;9.29;86.35
73106;BME280;61559;50.476;15.588;2022-10-03T00:57:58;97744.39;;;9.29;86.55
73106;BME280;61559;50.476;15.588;2022-10-03T01:00:33;97740.09;;;9.29;86.60
73106;BME280;61559;50.476;15.588;2022-10-03T01:03:29;97736.37;;;9.27;86.72
73106;BME280;61559;50.476;15.588;2022-10-03T01:06:15;97739.24;;;9.25;86.94
73106;BME280;61559;50.476;15.588;2022-10-03T01:09:07;97748.55;;;9.23;86.87
73106;BME280;61559;50.476;15.588;2022-10-03T01:11:54;97747.15;;;9.18;87.01
73106;BME280;61559;50.476;15.588;2022-10-03T01:14:52;97754.13;;;9.17;87.11
73106;BME280;61559;50.476;15.588;2022-10-03T01:17:41;97753.29;;;9.15;87.13
73106;BME280;61559;50.476;15.588;2022-10-03T01:20:27;97751.19;;;9.12;87.34
73106;BME280;61559;50.476;15.588;2022-10-03T01:23:28;97756.40;;;9.11;87.43
73106;BME280;61559;50.476;15.588;2022-10-03T01:26:17;97756.70;;;9.10;87.35
73106;BME280;61559;50.476;15.588;2022-10-03T01:28:54;97763.61;;;9.10;87.51
73106;BME280;61559;50.476;15.588;2022-10-03T01:31:52;97768.24;;;9.10;87.44
73106;BME280;61559;50.476;15.588;2022-10-03T01:34:33;97765.79;;;9.10;87.51
73106;BME280;61559;50.476;15.588;2022-10-03T01:37:09;97768.44;;;9.11;87.51
73106;BME280;61559;50.476;15.588;2022-10-03T01:39:50;97769.66;;;9.13;87.66
73106;BME280;61559;50.476;15.588;2022-10-03T01:42:35;97771.98;;;9.16;87.60
73106;BME280;61559;50.476;15.588;2022-10-03T01:45:21;97763.30;;;9.18;87.57
73106;BME280;61559;50.476;15.588;2022-10-03T01:47:58;97769.93;;;9.20;87.55
73106;BME280;61559;50.476;15.588;2022-10-03T01:50:35;97772.48;;;9.21;87.60
73106;BME280;61559;50.476;15.588;2022-10-03T01:53:13;97772.88;;;9.22;87.62
73106;BME280;61559;50.476;15.588;2022-10-03T01:55:53;97777.23;;;9.23;87.50
73106;BME280;61559;50.476;15.588;2022-10-03T01:58:33;97778.11;;;9.22;87.59
73106;BME280;61559;50.476;15.588;2022-10-03T02:01:13;97769.10;;;9.23;87.62
73106;BME280;61559;50.476;15.588;2022-10-03T02:03:56;97772.81;;;9.22;87.66
73106;BME280;61559;50.476;15.588;2022-10-03T02:06:41;97768.06;;;9.21;87.70
73106;BME280;61559;50.476;15.588;2022-10-03T02:09:22;97771.09;;;9.21;87.62
73106;BME280;61559;50.476;15.588;2022-10-03T02:12:10;97772.09;;;9.23;87.68
73106;BME280;61559;50.476;15.588;2022-10-03T02:14:50;97769.92;;;9.23;87.67
73106;BME280;61559;50.476;15.588;2022-10-03T02:17:28;97770.01;;;9.23;87.51
73106;BME280;61559;50.476;15.588;2022-10-03T02:20:05;97774.48;;;9.23;87.46
73106;BME280;61559;50.476;15.588;2022-10-03T02:22:49;97780.58;;;9.25;87.45
73106;BME280;61559;50.476;15.588;2022-10-03T02:25:26;97783.34;;;9.26;87.36
73106;BME280;61559;50.476;15.588;2022-10-03T02:28:29;97780.78;;;9.27;87.19
73106;BME280;61559;50.476;15.588;2022-10-03T02:31:32;97780.60;;;9.28;87.18
73106;BME280;61559;50.476;15.588;2022-10-03T02:40:31;97783.46;;;9.29;86.75
73106;BME280;61559;50.476;15.588;2022-10-03T02:43:30;97778.73;;;9.29;86.73
73106;BME280;61559;50.476;15.588;2022-10-03T02:46:36;97786.26;;;9.28;86.52
73106;BME280;61559;50.476;15.588;2022-10-03T02:49:57;97791.23;;;9.26;86.52
73106;BME280;61559;50.476;15.588;2022-10-03T02:56:18;97795.19;;;9.22;86.89
73106;BME280;61559;50.476;15.588;2022-10-03T02:59:25;97804.23;;;9.19;86.91
73106;BME280;61559;50.476;15.588;2022-10-03T03:02:16;97801.55;;;9.22;86.91
73106;BME280;61559;50.476;15.588;2022-10-03T03:05:18;97799.55;;;9.22;87.01
73106;BME280;61559;50.476;15.588;2022-10-03T03:08:16;97803.64;;;9.23;86.97
73106;BME280;61559;50.476;15.588;2022-10-03T03:11:08;97798.63;;;9.23;86.95
73106;BME280;61559;50.476;15.588;2022-10-03T03:17:14;97801.42;;;9.20;86.73
73106;BME280;61559;50.476;15.588;2022-10-03T03:22:56;97797.43;;;9.20;86.56
73106;BME280;61559;50.476;15.588;2022-10-03T03:25:44;97801.45;;;9.19;86.77
73106;BME280;61559;50.476;15.588;2022-10-03T03:28:30;97803.62;;;9.18;86.78
73106;BME280;61559;50.476;15.588;2022-10-03T03:31:10;97804.67;;;9.17;86.79
73106;BME280;61559;50.476;15.588;2022-10-03T03:33:52;97802.80;;;9.18;86.82
73106;BME280;61559;50.476;15.588;2022-10-03T03:36:34;97810.73;;;9.18;86.83
73106;BME280;61559;50.476;15.588;2022-10-03T03:39:23;97807.66;;;9.17;86.92
73106;BME280;61559;50.476;15.588;2022-10-03T03:42:07;97807.41;;;9.17;86.92
73106;BME280;61559;50.476;15.588;2022-10-03T03:45:01;97813.62;;;9.17;86.71
73106;BME280;61559;50.476;15.588;2022-10-03T03:47:58;97820.76;;;9.18;86.61
73106;BME280;61559;50.476;15.588;2022-10-03T03:50:44;97820.18;;;9.18;86.61
73106;BME280;61559;50.476;15.588;2022-10-03T03:56:44;97814.88;;;9.19;86.38
73106;BME280;61559;50.476;15.588;2022-10-03T03:59:29;97815.77;;;9.18;86.29
73106;BME280;61559;50.476;15.588;2022-10-03T04:02:21;97816.00;;;9.16;86.19
73106;BME280;61559;50.476;15.588;2022-10-03T04:05:03;97826.77;;;9.18;85.83
73106;BME280;61559;50.476;15.588;2022-10-03T04:07:47;97821.91;;;9.19;86.10
73106;BME280;61559;50.476;15.588;2022-10-03T04:10:39;97828.96;;;9.19;86.03
73106;BME280;61559;50.476;15.588;2022-10-03T04:13:32;97831.14;;;9.18;86.01
73106;BME280;61559;50.476;15.588;2022-10-03T04:16:21;97832.16;;;9.18;86.05
73106;BME280;61559;50.476;15.588;2022-10-03T04:19:16;97831.64;;;9.18;86.07
73106;BME280;61559;50.476;15.588;2022-10-03T04:22:11;97832.96;;;9.19;86.21
73106;BME280;61559;50.476;15.588;2022-10-03T04:25:07;97833.07;;;9.19;86.40
73106;BME280;61559;50.476;15.588;2022-10-03T04:27:58;97836.78;;;9.18;86.61
73106;BME280;61559;50.476;15.588;2022-10-03T04:30:36;97836.34;;;9.16;86.75
73106;BME280;61559;50.476;15.588;2022-10-03T04:33:17;97839.77;;;9.16;86.75
73106;BME280;61559;50.476;15.588;2022-10-03T04:36:39;97834.85;;;9.15;86.91
73106;BME280;61559;50.476;15.588;2022-10-03T04:39:25;97836.67;;;9.13;87.05
73106;BME280;61559;50.476;15.588;2022-10-03T04:42:07;97833.20;;;9.13;87.11
73106;BME280;61559;50.476;15.588;2022-10-03T04:45:03;97832.09;;;9.11;86.98
73106;BME280;61559;50.476;15.588;2022-10-03T04:47:42;97835.16;;;9.12;87.14
73106;BME280;61559;50.476;15.588;2022-10-03T04:50:29;97832.28;;;9.12;87.13
73106;BME280;61559;50.476;15.588;2022-10-03T04:53:22;97827.90;;;9.12;87.09
73106;BME280;61559;50.476;15.588;2022-10-03T04:56:03;97835.85;;;9.13;87.11
73106;BME280;61559;50.476;15.588;2022-10-03T04:58:46;97835.33;;;9.14;87.20
73106;BME280;61559;50.476;15.588;2022-10-03T05:01:23;97836.75;;;9.14;87.25
73106;BME280;61559;50.476;15.588;2022-10-03T05:04:04;97835.94;;;9.14;87.16
73106;BME280;61559;50.476;15.588;2022-10-03T05:06:47;97838.64;;;9.15;87.32
73106;BME280;61559;50.476;15.588;2022-10-03T05:09:32;97838.73;;;9.16;87.18
73106;BME280;61559;50.476;15.588;2022-10-03T05:12:11;97840.84;;;9.18;87.09
73106;BME280;61559;50.476;15.588;2022-10-03T05:15:04;97844.17;;;9.20;87.27
73106;BME280;61559;50.476;15.588;2022-10-03T05:17:47;97843.80;;;9.22;87.24
73106;BME280;61559;50.476;15.588;2022-10-03T05:20:30;97846.71;;;9.23;87.28
73106;BME280;61559;50.476;15.588;2022-10-03T05:23:13;97846.54;;;9.24;87.26
73106;BME280;61559;50.476;15.588;2022-10-03T05:25:56;97848.52;;;9.25;87.18
73106;BME280;61559;50.476;15.588;2022-10-03T05:28:56;97852.38;;;9.27;87.15
73106;BME280;61559;50.476;15.588;2022-10-03T05:31:41;97851.69;;;9.28;87.14
73106;BME280;61559;50.476;15.588;2022-10-03T05:34:25;97851.10;;;9.30;87.04
73106;BME280;61559;50.476;15.588;2022-10-03T05:37:11;97861.32;;;9.33;86.91
73106;BME280;61559;50.476;15.588;2022-10-03T05:39:57;97859.31;;;9.35;86.78
73106;BME280;61559;50.476;15.588;2022-10-03T05:42:41;97864.13;;;9.38;86.87
73106;BME280;61559;50.476;15.588;2022-10-03T05:45:27;97870.09;;;9.42;86.62
73106;BME280;61559;50.476;15.588;2022-10-03T05:48:12;97868.30;;;9.43;86.64
73106;BME280;61559;50.476;15.588;2022-10-03T05:51:00;97875.96;;;9.46;86.75
73106;BME280;61559;50.476;15.588;2022-10-03T05:57:00;97879.23;;;9.49;86.50
73106;BME280;61559;50.476;15.588;2022-10-03T05:59:59;97875.35;;;9.50;86.11
73106;BME280;61559;50.476;15.588;2022-10-03T06:03:01;97879.71;;;9.53;86.08
73106;BME280;61559;50.476;15.588;2022-10-03T06:05:48;97883.36;;;9.54;85.95
73106;BME280;61559;50.476;15.588;2022-10-03T06:08:43;97885.10;;;9.57;85.86
73106;BME280;61559;50.476;15.588;2022-10-03T06:11:29;97891.42;;;9.57;85.79
73106;BME280;61559;50.476;15.588;2022-10-03T06:17:14;97886.79;;;9.57;85.95
73106;BME280;61559;50.476;15.588;2022-10-03T06:19:58;97894.90;;;9.56;86.03
73106;BME280;61559;50.476;15.588;2022-10-03T06:23:01;97891.02;;;9.53;86.17
73106;BME280;61559;50.476;15.588;2022-10-03T06:35:22;97894.04;;;9.51;86.44
73106;BME280;61559;50.476;15.588;2022-10-03T06:41:49;97900.48;;;9.59;85.81
73106;BME280;61559;50.476;15.588;2022-10-03T06:44:38;97905.23;;;9.61;85.22
73106;BME280;61559;50.476;15.588;2022-10-03T06:47:25;97906.98;;;9.64;84.60
73106;BME280;61559;50.476;15.588;2022-10-03T06:50:18;97907.28;;;9.68;84.39
73106;BME280;61559;50.476;15.588;2022-10-03T06:53:18;97913.95;;;9.69;84.28
73106;BME280;61559;50.476;15.588;2022-10-03T06:56:08;97914.71;;;9.67;84.16
73106;BME280;61559;50.476;15.588;2022-10-03T06:59:08;97915.43;;;9.65;84.80
73106;BME280;61559;50.476;15.588;2022-10-03T07:08:04;97934.70;;;9.59;83.84
73106;BME280;61559;50.476;15.588;2022-10-03T07:10:59;97933.02;;;9.60;84.17
73106;BME280;61559;50.476;15.588;2022-10-03T07:16:59;97928.42;;;9.66;83.96
73106;BME280;61559;50.476;15.588;2022-10-03T07:20:13;97936.66;;;9.71;83.56
73106;BME280;61559;50.476;15.588;2022-10-03T07:23:25;97931.57;;;9.73;83.15
73106;BME280;61559;50.476;15.588;2022-10-03T07:26:30;97936.46;;;9.75;82.85
73106;BME280;61559;50.476;15.588;2022-10-03T07:29:18;97946.20;;;9.79;82.84
73106;BME280;61559;50.476;15.588;2022-10-03T07:32:20;97946.99;;;9.83;82.39
73106;BME280;61559;50.476;15.588;2022-10-03T07:35:25;97952.80;;;9.86;82.15
73106;BME280;61559;50.476;15.588;2022-10-03T07:38:42;97955.47;;;9.89;82.24
73106;BME280;61559;50.476;15.588;2022-10-03T07:41:43;97961.98;;;9.93;81.58
73106;BME280;61559;50.476;15.588;2022-10-03T07:50:59;97962.31;;;9.97;80.78
73106;BME280;61559;50.476;15.588;2022-10-03T07:53:50;97966.19;;;10.01;80.56
73106;BME280;61559;50.476;15.588;2022-10-03T07:56:44;97972.39;;;10.07;80.27
73106;BME280;61559;50.476;15.588;2022-10-03T07:59:43;97972.71;;;10.10;79.50
73106;BME280;61559;50.476;15.588;2022-10-03T08:02:34;97972.91;;;10.13;79.67
73106;BME280;61559;50.476;15.588;2022-10-03T08:05:23;97975.72;;;10.20;80.19
73106;BME280;61559;50.476;15.588;2022-10-03T08:08:16;97973.95;;;10.25;79.70
73106;BME280;61559;50.476;15.588;2022-10-03T08:11:09;97974.60;;;10.27;79.44
73106;BME280;61559;50.476;15.588;2022-10-03T08:14:00;97975.84;;;10.29;79.72
73106;BME280;61559;50.476;15.588;2022-10-03T08:16:59;97972.80;;;10.33;79.43
73106;BME280;61559;50.476;15.588;2022-10-03T08:19:51;97961.51;;;10.40;79.68
73106;BME280;61559;50.476;15.588;2022-10-03T08:22:41;97960.58;;;10.53;79.17
73106;BME280;61559;50.476;15.588;2022-10-03T08:25:28;97966.63;;;10.61;78.87
73106;BME280;61559;50.476;15.588;2022-10-03T08:34:25;97970.29;;;10.88;78.58
73106;BME280;61559;50.476;15.588;2022-10-03T08:43:55;97973.43;;;10.86;78.45
73106;BME280;61559;50.476;15.588;2022-10-03T08:47:04;97976.19;;;10.91;77.91
73106;BME280;61559;50.476;15.588;2022-10-03T08:53:15;97981.70;;;11.02;78.62
73106;BME280;61559;50.476;15.588;2022-10-03T08:55:56;97980.59;;;11.13;77.52
73106;BME280;61559;50.476;15.588;2022-10-03T09:01:42;97977.22;;;11.18;77.23
73106;BME280;61559;50.476;15.588;2022-10-03T09:04:49;97981.23;;;11.14;78.00
73106;BME280;61559;50.476;15.588;2022-10-03T09:08:02;97978.98;;;11.07;79.02
73106;BME280;61559;50.476;15.588;2022-10-03T09:11:01;97986.36;;;10.96;78.85
73106;BME280;61559;50.476;15.588;2022-10-03T09:14:06;97989.94;;;10.90;79.67
73106;BME280;61559;50.476;15.588;2022-10-03T09:16:58;98001.02;;;10.85;79.46
73106;BME280;61559;50.476;15.588;2022-10-03T09:20:11;97996.65;;;10.80;79.65
73106;BME280;61559;50.476;15.588;2022-10-03T09:29:24;97991.90;;;11.06;78.33
73106;BME280;61559;50.476;15.588;2022-10-03T09:32:27;97993.89;;;11.11;77.57
73106;BME280;61559;50.476;15.588;2022-10-03T09:38:49;97991.88;;;11.21;76.67
73106;BME280;61559;50.476;15.588;2022-10-03T09:42:03;98003.69;;;11.27;76.00
73106;BME280;61559;50.476;15.588;2022-10-03T09:51:18;98010.69;;;11.54;73.21
73106;BME280;61559;50.476;15.588;2022-10-03T10:00:21;98006.77;;;11.76;72.15
73106;BME280;61559;50.476;15.588;2022-10-03T10:03:04;98002.52;;;11.78;71.38
73106;BME280;61559;50.476;15.588;2022-10-03T10:06:12;98005.96;;;11.82;71.30
73106;BME280;61559;50.476;15.588;2022-10-03T10:12:08;97996.33;;;11.97;71.65
73106;BME280;61559;50.476;15.588;2022-10-03T10:14:55;97996.76;;;12.06;71.15
73106;BME280;61559;50.476;15.588;2022-10-03T10:23:45;98010.39;;;11.78;72.90
73106;BME280;61559;50.476;15.588;2022-10-03T10:26:55;98012.40;;;11.72;73.69
73106;BME280;61559;50.476;15.588;2022-10-03T10:29:57;98022.59;;;11.68;74.24
73106;BME280;61559;50.476;15.588;2022-10-03T10:32:52;98027.11;;;11.59;72.94
73106;BME280;61559;50.476;15.588;2022-10-03T10:36:09;98027.19;;;11.52;73.59
73106;BME280;61559;50.476;15.588;2022-10-03T10:39:26;98013.23;;;11.50;73.88
73106;BME280;61559;50.476;15.588;2022-10-03T10:42:36;98016.26;;;11.50;73.58
73106;BME280;61559;50.476;15.588;2022-10-03T10:45:54;98016.30;;;11.48;73.12
73106;BME280;61559;50.476;15.588;2022-10-03T10:49:09;98016.35;;;11.43;72.01
73106;BME280;61559;50.476;15.588;2022-10-03T10:55:24;98018.81;;;11.43;73.19
73106;BME280;61559;50.476;15.588;2022-10-03T11:02:01;98022.30;;;11.50;71.43
73106;BME280;61559;50.476;15.588;2022-10-03T11:11:30;98027.16;;;11.53;71.42
73106;BME280;61559;50.476;15.588;2022-10-03T11:23:42;98039.77;;;11.45;71.50
73106;BME280;61559;50.476;15.588;2022-10-03T11:33:11;98045.59;;;11.39;70.30
73106;BME280;61559;50.476;15.588;2022-10-03T11:36:29;98059.89;;;11.41;70.37
73106;BME280;61559;50.476;15.588;2022-10-03T11:39:05;98046.38;;;11.40;70.36
73106;BME280;61559;50.476;15.588;2022-10-03T11:41:50;98048.20;;;11.43;71.07
73106;BME280;61559;50.476;15.588;2022-10-03T11:44:26;98042.33;;;11.45;71.06
73106;BME280;61559;50.476;15.588;2022-10-03T11:47:30;98051.23;;;11.48;71.15
73106;BME280;61559;50.476;15.588;2022-10-03T11:50:22;98051.84;;;11.48;70.84
73106;BME280;61559;50.476;15.588;2022-10-03T11:53:09;98061.45;;;11.47;71.33
73106;BME280;61559;50.476;15.588;2022-10-03T11:55:46;98056.40;;;11.42;71.76
73106;BME280;61559;50.476;15.588;2022-10-03T11:58:32;98050.09;;;11.39;72.00
73106;BME280;61559;50.476;15.588;2022-10-03T12:01:19;98050.55;;;11.38;71.58
73106;BME280;61559;50.476;15.588;2022-10-03T12:03:59;98053.00;;;11.42;71.27
73106;BME280;61559;50.476;15.588;2022-10-03T12:06:43;98049.05;;;11.50;71.06
73106;BME280;61559;50.476;15.588;2022-10-03T12:09:41;98047.11;;;11.58;70.18
73106;BME280;61559;50.476;15.588;2022-10-03T12:12:22;98048.36;;;11.67;70.86
73106;BME280;61559;50.476;15.588;2022-10-03T12:15:04;98049.63;;;11.75;70.04
73106;BME280;61559;50.476;15.588;2022-10-03T12:17:47;98054.58;;;11.78;69.63
73106;BME280;61559;50.476;15.588;2022-10-03T12:20:27;98042.79;;;11.81;70.13
73106;BME280;61559;50.476;15.588;2022-10-03T12:23:08;98060.15;;;11.85;69.67
73106;BME280;61559;50.476;15.588;2022-10-03T12:25:43;98058.97;;;11.80;68.97
73106;BME280;61559;50.476;15.588;2022-10-03T12:28:19;98066.88;;;11.78;69.61
73106;BME280;61559;50.476;15.588;2022-10-03T12:30:57;98059.36;;;11.79;69.24
73106;BME280;61559;50.476;15.588;2022-10-03T12:33:47;98052.81;;;11.78;68.77
73106;BME280;61559;50.476;15.588;2022-10-03T12:36:26;98057.88;;;11.81;69.51
73106;BME280;61559;50.476;15.588;2022-10-03T12:39:15;98059.35;;;11.88;69.04
73106;BME280;61559;50.476;15.588;2022-10-03T12:42:01;98070.36;;;11.95;68.53
73106;BME280;61559;50.476;15.588;2022-10-03T12:44:43;98063.45;;;12.00;67.82
73106;BME280;61559;50.476;15.588;2022-10-03T12:47:26;98062.90;;;12.04;67.05
73106;BME280;61559;50.476;15.588;2022-10-03T12:50:34;98061.42;;;12.11;67.56
73106;BME280;61559;50.476;15.588;2022-10-03T12:53:31;98061.11;;;12.19;67.68
73106;BME280;61559;50.476;15.588;2022-10-03T12:56:12;98068.98;;;12.27;67.26
73106;BME280;61559;50.476;15.588;2022-10-03T12:58:51;98065.10;;;12.30;66.70
73106;BME280;61559;50.476;15.588;2022-10-03T13:01:32;98065.12;;;12.24;66.30
73106;BME280;61559;50.476;15.588;2022-10-03T13:04:15;98065.15;;;12.19;66.67
73106;BME280;61559;50.476;15.588;2022-10-03T13:07:06;98066.11;;;12.13;67.03
73106;BME280;61559;50.476;15.588;2022-10-03T13:10:03;98056.54;;;12.05;66.72
73106;BME280;61559;50.476;15.588;2022-10-03T13:12:46;98059.23;;;12.01;66.81
73106;BME280;61559;50.476;15.588;2022-10-03T13:15:45;98065.25;;;11.93;66.98
73106;BME280;61559;50.476;15.588;2022-10-03T13:18:35;98075.92;;;11.86;67.46
73106;BME280;61559;50.476;15.588;2022-10-03T13:21:16;98075.81;;;11.80;66.77
73106;BME280;61559;50.476;15.588;2022-10-03T13:24:14;98074.59;;;11.79;67.58
73106;BME280;61559;50.476;15.588;2022-10-03T13:26:58;98076.56;;;11.80;67.64
73106;BME280;61559;50.476;15.588;2022-10-03T13:29:35;98078.12;;;11.80;67.10
73106;BME280;61559;50.476;15.588;2022-10-03T13:32:14;98074.08;;;11.83;67.64
73106;BME280;61559;50.476;15.588;2022-10-03T13:38:05;98061.31;;;11.86;68.04
73106;BME280;61559;50.476;15.588;2022-10-03T13:40:45;98068.84;;;11.84;68.05
73106;BME280;61559;50.476;15.588;2022-10-03T13:43:22;98073.06;;;11.86;68.11
73106;BME280;61559;50.476;15.588;2022-10-03T13:45:55;98068.84;;;11.86;67.94
73106;BME280;61559;50.476;15.588;2022-10-03T13:48:27;98067.20;;;11.82;67.67
73106;BME280;61559;50.476;15.588;2022-10-03T13:51:03;98063.02;;;11.81;67.58
73106;BME280;61559;50.476;15.588;2022-10-03T13:53:57;98064.56;;;11.79;67.97
73106;BME280;61559;50.476;15.588;2022-10-03T13:56:53;98070.33;;;11.80;67.93
73106;BME280;61559;50.476;15.588;2022-10-03T13:59:40;98066.89;;;11.81;68.81
73106;BME280;61559;50.476;15.588;2022-10-03T14:02:28;98070.55;;;11.79;68.45
73106;BME280;61559;50.476;15.588;2022-10-03T14:05:24;98072.17;;;11.76;68.32
73106;BME280;61559;50.476;15.588;2022-10-03T14:08:08;98079.38;;;11.73;68.82
73106;BME280;61559;50.476;15.588;2022-10-03T14:11:09;98080.17;;;11.68;69.31
73106;BME280;61559;50.476;15.588;2022-10-03T14:14:03;98079.50;;;11.60;70.04
73106;BME280;61559;50.476;15.588;2022-10-03T14:16:40;98079.94;;;11.55;71.02
73106;BME280;61559;50.476;15.588;2022-10-03T14:19:19;98084.17;;;11.51;71.24
73106;BME280;61559;50.476;15.588;2022-10-03T14:22:16;98076.27;;;11.47;71.53
73106;BME280;61559;50.476;15.588;2022-10-03T14:24:58;98073.25;;;11.43;71.76
73106;BME280;61559;50.476;15.588;2022-10-03T14:27:53;98071.42;;;11.43;72.14
73106;BME280;61559;50.476;15.588;2022-10-03T14:30:27;98079.80;;;11.42;72.10
73106;BME280;61559;50.476;15.588;2022-10-03T14:33:18;98085.27;;;11.44;72.15
73106;BME280;61559;50.476;15.588;2022-10-03T14:36:03;98086.79;;;11.45;72.03
73106;BME280;61559;50.476;15.588;2022-10-03T14:38:50;98088.81;;;11.45;70.84
73106;BME280;61559;50.476;15.588;2022-10-03T14:41:42;98091.00;;;11.44;70.85
73106;BME280;61559;50.476;15.588;2022-10-03T14:44:17;98095.70;;;11.44;71.10
73106;BME280;61559;50.476;15.588;2022-10-03T14:46:53;98089.12;;;11.43;70.40
73106;BME280;61559;50.476;15.588;2022-10-03T14:49:28;98086.04;;;11.40;70.97
73106;BME280;61559;50.476;15.588;2022-10-03T14:52:26;98090.82;;;11.43;70.46
73106;BME280;61559;50.476;15.588;2022-10-03T14:55:06;98086.70;;;11.45;70.59
73106;BME280;61559;50.476;15.588;2022-10-03T14:57:43;98084.82;;;11.46;70.48
73106;BME280;61559;50.476;15.588;2022-10-03T15:00:39;98088.38;;;11.48;70.54
73106;BME280;61559;50.476;15.588;2022-10-03T15:03:30;98085.02;;;11.50;70.72
73106;BME280;61559;50.476;15.588;2022-10-03T15:06:29;98080.65;;;11.58;70.70
73106;BME280;61559;50.476;15.588;2022-10-03T15:09:07;98068.59;;;12.32;69.53
73106;BME280;61559;50.476;15.588;2022-10-03T15:11:47;98071.94;;;12.70;69.19
73106;BME280;61559;50.476;15.588;2022-10-03T15:14:19;98066.98;;;12.63;69.23
73106;BME280;61559;50.476;15.588;2022-10-03T15:16:54;98065.02;;;12.59;68.04
73106;BME280;61559;50.476;15.588;2022-10-03T15:19:28;98069.94;;;12.49;68.24
73106;BME280;61559;50.476;15.588;2022-10-03T15:22:10;98076.72;;;12.44;69.14
73106;BME280;61559;50.476;15.588;2022-10-03T15:24:44;98080.52;;;12.34;68.68
73106;BME280;61559;50.476;15.588;2022-10-03T15:27:19;98076.18;;;12.22;69.34
73106;BME280;61559;50.476;15.588;2022-10-03T15:29:54;98069.70;;;12.13;70.30
73106;BME280;61559;50.476;15.588;2022-10-03T15:32:31;98073.31;;;12.01;70.29
73106;BME280;61559;50.476;15.588;2022-10-03T15:35:05;98078.15;;;11.91;70.49
73106;BME280;61559;50.476;15.588;2022-10-03T15:37:41;98086.98;;;11.81;70.65
73106;BME280;61559;50.476;15.588;2022-10-03T15:40:22;98096.99;;;11.70;71.18
73106;BME280;61559;50.476;15.588;2022-10-03T15:43:05;98100.53;;;11.59;71.90
73106;BME280;61559;50.476;15.588;2022-10-03T15:45:37;98103.67;;;11.47;72.78
73106;BME280;61559;50.476;15.588;2022-10-03T15:48:14;98109.14;;;11.37;73.62
73106;BME280;61559;50.476;15.588;2022-10-03T15:50:51;98106.91;;;11.27;74.53
73106;BME280;61559;50.476;15.588;2022-10-03T15:53:23;98104.02;;;11.20;75.05
73106;BME280;61559;50.476;15.588;2022-10-03T15:56:13;98097.48;;;11.13;75.86
73106;BME280;61559;50.476;15.588;2022-10-03T15:58:48;98099.32;;;11.07;76.23
73106;BME280;61559;50.476;15.588;2022-10-03T16:01:23;98104.00;;;11.00;76.44
73106;BME280;61559;50.476;15.588;2022-10-03T16:04:00;98103.35;;;10.93;76.75
73106;BME280;61559;50.476;15.588;2022-10-03T16:06:40;98101.70;;;10.88;77.06
73106;BME280;61559;50.476;15.588;2022-10-03T16:09:21;98106.28;;;10.84;77.23
73106;BME280;61559;50.476;15.588;2022-10-03T16:12:04;98104.97;;;10.78;77.50
73106;BME280;61559;50.476;15.588;2022-10-03T16:14:43;98099.93;;;10.73;77.87
73106;BME280;61559;50.476;15.588;2022-10-03T16:17:17;98098.16;;;10.67;78.03
73106;BME280;61559;50.476;15.588;2022-10-03T16:19:53;98098.38;;;10.62;78.35
73106;BME280;61559;50.476;15.588;2022-10-03T16:22:33;98097.10;;;10.57;78.55
73106;BME280;61559;50.476;15.588;2022-10-03T16:25:11;98096.17;;;10.54;78.66
73106;BME280;61559;50.476;15.588;2022-10-03T16:27:52;98094.81;;;10.52;78.78
73106;BME280;61559;50.476;15.588;2022-10-03T16:30:26;98093.35;;;10.51;79.06
73106;BME280;61559;50.476;15.588;2022-10-03T16:33:05;98092.63;;;10.49;79.39
73106;BME280;61559;50.476;15.588;2022-10-03T16:35:46;98093.09;;;10.48;79.65
73106;BME280;61559;50.476;15.588;2022-10-03T16:38:21;98093.54;;;10.47;79.82
73106;BME280;61559;50.476;15.588;2022-10-03T16:40:56;98098.36;;;10.45;80.08
73106;BME280;61559;50.476;15.588;2022-10-03T16:43:30;98098.73;;;10.42;80.33
73106;BME280;61559;50.476;15.588;2022-10-03T16:46:07;98097.14;;;10.40;80.32
73106;BME280;61559;50.476;15.588;2022-10-03T16:48:42;98090.41;;;10.36;80.44
73106;BME280;61559;50.476;15.588;2022-10-03T16:51:38;98094.20;;;10.36;80.88
73106;BME280;61559;50.476;15.588;2022-10-03T16:54:13;98091.17;;;10.33;80.98
73106;BME280;61559;50.476;15.588;2022-10-03T16:56:48;98093.54;;;10.31;81.28
73106;BME280;61559;50.476;15.588;2022-10-03T16:59:22;98092.46;;;10.29;81.46
73106;BME280;61559;50.476;15.588;2022-10-03T17:01:56;98093.11;;;10.27;81.59
73106;BME280;61559;50.476;15.588;2022-10-03T17:04:30;98087.91;;;10.25;81.94
73106;BME280;61559;50.476;15.588;2022-10-03T17:07:05;98090.53;;;10.23;82.15